Terminal Aerodrome Forecast
Issued by NWS

Home | Current Version | Previous Version | Text Only | Print | Product List | Glossary On
Versions: 1 2 3 4 5 6 7 8 9 10 11 12 13 14 15 16 17 18 19 20 21 22 23 24 25 26 27 28
908
FTUS44 KFWD 261128
TAFDAL
TAF
KDAL 261128Z 2612/2712 14006KT P6SM FEW300
     FM261400 16012KT P6SM BKN015
     FM261800 17017G27KT P6SM SCT020 BKN250
     FM262200 17017G27KT P6SM VCTS SCT040CB BKN150
     FM270100 17017KT P6SM SCT045 SCT100
     FM270600 18016KT P6SM BKN015
     FM270900 25008KT P6SM BKN009=

USA.gov is the U.S. government's official web portal to all federal, state and local government web resources and services.